createdAt,value
2023-03-02T00:01:33.623Z,13.75
2023-03-02T00:04:00.256Z,14.48
2023-03-02T00:06:28.353Z,16.38
2023-03-02T00:08:54.886Z,15.95
2023-03-02T00:11:21.626Z,15.07
2023-03-02T00:13:48.106Z,16.10
2023-03-02T00:16:14.670Z,15.75
2023-03-02T00:18:41.151Z,16.48
2023-03-02T00:21:10.449Z,15.05
2023-03-02T00:23:38.197Z,15.82
2023-03-02T00:26:05.850Z,13.88
2023-03-02T00:28:32.944Z,13.40
2023-03-02T00:30:59.571Z,15.20
2023-03-02T00:33:26.072Z,16.60
2023-03-02T00:35:52.582Z,15.13
2023-03-02T00:38:19.111Z,16.08
2023-03-02T00:40:46.435Z,14.95
2023-03-02T00:43:13.304Z,16.48
2023-03-02T00:45:39.873Z,15.43
2023-03-02T00:48:06.591Z,15.38
2023-03-02T00:50:33.074Z,16.42
2023-03-02T00:52:59.591Z,16.55
2023-03-02T00:55:26.066Z,14.07
2023-03-02T00:57:55.346Z,15.27
2023-03-02T01:00:23.034Z,15.82
2023-03-02T01:02:49.974Z,16.20
2023-03-02T01:05:16.657Z,16.70
2023-03-02T01:07:43.195Z,16.63
2023-03-02T01:10:10.352Z,16.20
2023-03-02T01:12:36.813Z,15.50
2023-03-02T01:15:03.635Z,15.02
2023-03-02T01:17:30.123Z,16.45
2023-03-02T01:19:57.084Z,17.45
2023-03-02T01:22:23.604Z,15.23
2023-03-02T01:24:50.249Z,16.58
2023-03-02T01:27:16.785Z,13.60
2023-03-02T01:29:43.384Z,15.68
2023-03-02T01:32:09.998Z,17.95
2023-03-02T01:34:36.585Z,15.85
2023-03-02T01:37:03.105Z,16.88
2023-03-02T01:39:29.614Z,16.50
2023-03-02T01:44:39.579Z,16.50
2023-03-02T01:47:23.283Z,15.48
2023-03-02T01:49:59.727Z,14.43
2023-03-02T01:52:26.733Z,15.32
2023-03-02T01:54:53.750Z,16.42
2023-03-02T01:57:26.963Z,14.98
2023-03-02T01:59:56.144Z,17.27
2023-03-02T02:02:22.566Z,16.85
2023-03-02T02:04:49.064Z,15.48
2023-03-02T02:07:15.601Z,18.00
2023-03-02T02:09:47.052Z,17.20
2023-03-02T02:12:15.275Z,15.82
2023-03-02T02:14:41.889Z,17.50
2023-03-02T02:17:08.322Z,15.88
2023-03-02T02:19:55.460Z,13.85
2023-03-02T02:22:44.653Z,16.25
2023-03-02T02:25:41.429Z,16.50
2023-03-02T02:28:14.474Z,15.90
2023-03-02T02:30:40.894Z,16.27
2023-03-02T02:33:07.394Z,16.98
2023-03-02T02:35:34.758Z,17.70
2023-03-02T02:38:05.755Z,18.25
2023-03-02T02:40:42.272Z,15.98
2023-03-02T02:43:11.857Z,16.70
2023-03-02T02:45:38.343Z,16.90
2023-03-02T02:48:05.053Z,17.48
2023-03-02T02:50:33.435Z,13.52
2023-03-02T02:53:02.958Z,16.70
2023-03-02T02:55:29.725Z,16.80
2023-03-02T02:57:57.610Z,17.35
2023-03-02T03:00:24.248Z,16.92
2023-03-02T03:03:00.149Z,16.55
2023-03-02T03:05:26.716Z,16.45
2023-03-02T03:07:53.242Z,17.55
2023-03-02T03:10:34.987Z,17.33
2023-03-02T03:13:01.910Z,15.15
2023-03-02T03:15:28.392Z,16.75
2023-03-02T03:17:56.236Z,17.90
2023-03-02T03:20:23.049Z,16.85
2023-03-02T03:22:49.539Z,16.30
2023-03-02T03:25:16.091Z,16.13
2023-03-02T03:27:42.999Z,17.13
2023-03-02T03:30:13.135Z,17.08
2023-03-02T03:32:39.772Z,16.23
2023-03-02T03:35:08.785Z,15.93
2023-03-02T03:37:35.326Z,15.88
2023-03-02T03:40:01.838Z,15.23
2023-03-02T03:42:28.360Z,16.10
2023-03-02T03:44:54.857Z,15.60
2023-03-02T03:47:21.351Z,16.70
2023-03-02T03:49:47.820Z,17.10
2023-03-02T03:52:14.343Z,17.20
2023-03-02T03:54:40.875Z,16.60
2023-03-02T03:57:07.383Z,18.85
2023-03-02T03:59:34.063Z,17.45
2023-03-02T04:02:01.352Z,16.23
2023-03-02T04:04:29.897Z,17.67
2023-03-02T04:06:56.361Z,16.55
2023-03-02T04:09:23.159Z,16.58
2023-03-02T04:11:51.332Z,16.30
2023-03-02T04:14:18.023Z,17.27
2023-03-02T04:16:44.645Z,17.63
2023-03-02T04:19:11.448Z,16.88
2023-03-02T04:21:39.159Z,17.33
2023-03-02T04:24:06.077Z,16.88
2023-03-02T04:26:33.164Z,18.33
2023-03-02T04:28:59.776Z,15.85
2023-03-02T04:31:26.387Z,16.98
2023-03-02T04:33:52.918Z,16.38
2023-03-02T04:36:19.644Z,18.05
2023-03-02T04:38:46.827Z,17.95
2023-03-02T04:41:13.312Z,16.98
2023-03-02T04:43:39.813Z,17.08
2023-03-02T04:46:06.373Z,18.15
2023-03-02T04:48:32.866Z,17.63
2023-03-02T04:50:59.346Z,20.17
2023-03-02T04:53:25.889Z,18.30
2023-03-02T04:55:52.346Z,17.70
2023-03-02T04:58:18.863Z,17.48
2023-03-02T05:00:45.392Z,20.35
2023-03-02T05:03:11.891Z,18.65
2023-03-02T05:05:38.474Z,18.52
2023-03-02T05:08:05.081Z,16.98
2023-03-02T05:10:31.556Z,18.58
2023-03-02T05:12:58.258Z,18.08
2023-03-02T05:15:26.592Z,17.38
2023-03-02T05:17:53.063Z,16.25
2023-03-02T05:20:19.779Z,17.27
2023-03-02T05:22:46.537Z,18.35
2023-03-02T05:25:13.059Z,16.10
2023-03-02T05:27:39.599Z,17.23
2023-03-02T05:30:06.872Z,18.55
2023-03-02T05:32:33.378Z,17.17
2023-03-02T05:35:00.444Z,17.67
2023-03-02T05:37:26.937Z,18.05
2023-03-02T05:39:53.418Z,17.95
2023-03-02T05:42:19.882Z,18.40
2023-03-02T05:44:46.442Z,16.83
2023-03-02T05:47:13.010Z,18.88
2023-03-02T05:49:39.532Z,16.83
2023-03-02T05:52:06.054Z,18.60
2023-03-02T05:54:32.608Z,19.25
2023-03-02T05:56:59.124Z,17.55
2023-03-02T05:59:25.702Z,19.42
2023-03-02T06:01:58.590Z,18.63
2023-03-02T06:04:25.646Z,20.58
2023-03-02T06:06:52.700Z,19.75
2023-03-02T06:09:19.172Z,22.92
2023-03-02T06:11:45.918Z,20.80
2023-03-02T06:14:12.444Z,18.50
2023-03-02T06:16:38.927Z,21.02
2023-03-02T06:19:06.165Z,19.50
2023-03-02T06:21:32.834Z,17.70
2023-03-02T06:23:59.346Z,20.15
2023-03-02T06:26:25.914Z,18.70
2023-03-02T06:28:53.881Z,19.10
2023-03-02T06:31:21.176Z,19.13
2023-03-02T06:33:47.878Z,19.95
2023-03-02T06:36:15.062Z,19.85
2023-03-02T06:38:41.588Z,19.60
2023-03-02T06:41:08.079Z,18.98
2023-03-02T06:43:34.574Z,16.73
2023-03-02T06:46:01.834Z,19.27
2023-03-02T06:48:28.390Z,19.88
2023-03-02T06:50:54.846Z,19.55
2023-03-02T06:53:23.293Z,19.90
2023-03-02T06:55:50.539Z,19.50
2023-03-02T06:58:17.232Z,15.20
2023-03-02T07:00:43.733Z,16.48
2023-03-02T07:03:10.226Z,19.27
2023-03-02T07:05:36.855Z,17.00
2023-03-02T07:08:03.510Z,19.83
2023-03-02T07:10:30.135Z,18.10
2023-03-02T07:12:56.735Z,19.67
2023-03-02T07:15:23.260Z,19.20
2023-03-02T07:17:50.012Z,20.90
2023-03-02T07:20:17.569Z,21.00
2023-03-02T07:22:44.273Z,17.75
2023-03-02T07:25:11.029Z,20.05
2023-03-02T07:27:37.796Z,21.33
2023-03-02T07:30:05.586Z,20.60
2023-03-02T07:32:32.277Z,19.27
2023-03-02T07:34:58.828Z,19.70
2023-03-02T07:37:25.379Z,19.70
2023-03-02T07:39:52.074Z,21.98
2023-03-02T07:42:18.659Z,19.58
2023-03-02T07:44:45.184Z,20.48
2023-03-02T07:47:12.023Z,19.88
2023-03-02T07:49:38.677Z,22.23
2023-03-02T07:52:06.683Z,21.73
2023-03-02T07:54:33.221Z,22.27
2023-03-02T07:56:59.758Z,24.40
2023-03-02T07:59:26.395Z,21.10
2023-03-02T08:01:53.059Z,21.25
2023-03-02T08:04:19.608Z,20.38
2023-03-02T08:06:46.141Z,19.38
2023-03-02T08:09:15.139Z,20.73
2023-03-02T08:11:43.003Z,20.23
2023-03-02T08:14:09.438Z,20.20
2023-03-02T08:16:36.027Z,19.50
2023-03-02T08:19:02.536Z,19.92
2023-03-02T08:21:29.161Z,18.00
2023-03-02T08:23:56.050Z,18.98
2023-03-02T08:26:22.624Z,16.73
2023-03-02T08:28:49.153Z,19.13
2023-03-02T08:31:15.933Z,19.02
2023-03-02T08:33:42.507Z,19.88
2023-03-02T08:36:12.475Z,15.63
2023-03-02T08:38:39.038Z,19.63
2023-03-02T08:41:07.188Z,19.55
2023-03-02T08:43:33.727Z,19.90
2023-03-02T08:46:00.403Z,17.67
2023-03-02T08:48:27.071Z,19.40
2023-03-02T08:51:01.388Z,18.10
2023-03-02T08:53:28.474Z,19.45
2023-03-02T08:55:54.979Z,16.63
2023-03-02T08:58:21.583Z,16.40
2023-03-02T09:00:48.214Z,19.05
2023-03-02T09:03:14.954Z,18.48
2023-03-02T09:05:41.458Z,18.40
2023-03-02T09:08:07.942Z,18.25
2023-03-02T09:10:34.441Z,20.67
2023-03-02T09:13:00.959Z,19.33
2023-03-02T09:15:27.537Z,18.25
2023-03-02T09:17:54.102Z,18.30
2023-03-02T09:20:20.778Z,18.02
2023-03-02T09:22:50.696Z,19.17
2023-03-02T09:25:18.520Z,16.75
2023-03-02T09:27:46.290Z,19.52
2023-03-02T09:30:13.801Z,18.50
2023-03-02T09:32:40.829Z,18.45
2023-03-02T09:35:08.090Z,18.30
2023-03-02T09:37:37.290Z,18.48
2023-03-02T09:40:04.371Z,16.58
2023-03-02T09:42:54.520Z,19.30
2023-03-02T09:45:39.412Z,18.70
2023-03-02T09:48:11.255Z,17.23
2023-03-02T09:50:41.021Z,16.48
2023-03-02T09:53:16.568Z,17.27
2023-03-02T09:55:43.876Z,16.67
2023-03-02T09:58:16.092Z,17.25
2023-03-02T10:00:43.978Z,15.43
2023-03-02T10:03:23.469Z,16.05
2023-03-02T10:05:54.190Z,16.65
2023-03-02T10:08:24.873Z,16.27
2023-03-02T10:11:04.657Z,15.55
2023-03-02T10:13:47.571Z,16.17
2023-03-02T10:16:35.502Z,17.65
2023-03-02T10:19:17.325Z,16.52
2023-03-02T10:21:47.897Z,15.50
2023-03-02T10:24:31.768Z,15.18
2023-03-02T10:27:00.452Z,16.88
2023-03-02T10:29:29.885Z,15.18
2023-03-02T10:32:13.120Z,16.65
2023-03-02T10:34:39.649Z,15.77
2023-03-02T10:37:14.787Z,15.38
2023-03-02T10:39:41.637Z,15.55
2023-03-02T10:42:13.377Z,14.55
2023-03-02T10:44:40.840Z,14.55
2023-03-02T10:47:10.904Z,15.30
2023-03-02T10:49:41.678Z,14.55
2023-03-02T10:52:21.927Z,16.08
2023-03-02T10:54:48.566Z,14.68
2023-03-02T10:57:28.501Z,16.33
2023-03-02T10:59:59.089Z,14.60
2023-03-02T11:02:27.477Z,16.45
2023-03-02T11:04:58.861Z,16.27
2023-03-02T11:07:27.837Z,17.50
2023-03-02T11:10:00.410Z,17.15
2023-03-02T11:12:27.252Z,17.27
2023-03-02T11:15:12.021Z,17.60
2023-03-02T11:17:38.584Z,15.50
2023-03-02T11:20:05.555Z,15.88
2023-03-02T11:23:15.172Z,15.38
2023-03-02T11:25:46.291Z,16.30
2023-03-02T11:28:19.635Z,16.05
2023-03-02T11:30:47.511Z,15.43
2023-03-02T11:33:24.359Z,16.20
2023-03-02T11:36:15.448Z,15.07
2023-03-02T11:38:50.085Z,15.82
2023-03-02T11:41:31.263Z,16.27
2023-03-02T11:43:59.958Z,15.25
2023-03-02T11:46:30.550Z,15.98
2023-03-02T11:48:59.845Z,16.75
2023-03-02T11:51:29.537Z,15.20
2023-03-02T11:53:59.392Z,15.85
2023-03-02T11:56:26.645Z,15.73
2023-03-02T11:58:56.267Z,13.30
2023-03-02T12:01:24.719Z,14.90
2023-03-02T12:03:51.291Z,14.82
2023-03-02T12:06:20.402Z,15.10
2023-03-02T12:08:47.645Z,15.13
2023-03-02T12:11:16.859Z,15.15
2023-03-02T12:13:44.493Z,14.98
2023-03-02T12:16:37.762Z,14.10
2023-03-02T12:19:16.196Z,14.27
2023-03-02T12:22:06.893Z,14.65
2023-03-02T12:24:34.476Z,14.13
2023-03-02T12:27:27.393Z,15.20
2023-03-02T12:30:09.860Z,15.95
2023-03-02T12:32:36.803Z,14.43
2023-03-02T12:35:14.454Z,15.52
2023-03-02T12:37:48.077Z,15.02
2023-03-02T12:40:25.443Z,16.00
2023-03-02T12:42:57.965Z,15.95
2023-03-02T12:46:01.742Z,17.40
2023-03-02T12:48:32.283Z,16.00
2023-03-02T12:51:03.226Z,15.82
2023-03-02T12:53:29.782Z,16.83
2023-03-02T12:55:56.389Z,16.42
2023-03-02T12:58:25.514Z,15.10
2023-03-02T13:00:53.879Z,16.23
2023-03-02T13:03:20.595Z,15.82
2023-03-02T13:05:50.203Z,15.68
2023-03-02T13:08:28.630Z,16.23
2023-03-02T13:10:56.700Z,15.95
2023-03-02T13:13:28.672Z,15.82
2023-03-02T13:15:56.119Z,16.00
2023-03-02T13:18:23.339Z,16.60
2023-03-02T13:20:50.209Z,14.18
2023-03-02T13:23:16.968Z,16.17
2023-03-02T13:25:54.708Z,14.38
2023-03-02T13:28:37.946Z,16.30
2023-03-02T13:31:23.810Z,17.17
2023-03-02T13:33:50.879Z,14.85
2023-03-02T13:36:22.487Z,15.18
2023-03-02T13:38:51.492Z,13.93
2023-03-02T13:41:28.209Z,14.63
2023-03-02T13:43:55.217Z,15.05
2023-03-02T13:46:22.161Z,12.68
2023-03-02T13:49:10.647Z,13.90
2023-03-02T13:51:45.643Z,13.95
2023-03-02T13:54:17.178Z,14.13
2023-03-02T13:56:43.931Z,13.40
2023-03-02T13:59:14.376Z,13.40
2023-03-02T14:01:44.248Z,12.73
2023-03-02T14:04:14.726Z,12.00
2023-03-02T14:06:41.267Z,12.50
2023-03-02T14:09:07.808Z,13.80
2023-03-02T14:11:36.142Z,12.93
2023-03-02T14:14:03.170Z,12.60
2023-03-02T14:16:29.932Z,13.23
2023-03-02T14:18:56.656Z,13.23
2023-03-02T14:21:24.219Z,12.77
2023-03-02T14:23:52.097Z,12.32
2023-03-02T14:26:38.539Z,12.98
2023-03-02T14:29:15.779Z,12.93
2023-03-02T14:31:42.309Z,12.60
2023-03-02T14:34:14.391Z,12.82
2023-03-02T14:36:41.098Z,11.13
2023-03-02T14:39:17.557Z,10.73
2023-03-02T14:41:53.458Z,11.93
2023-03-02T14:44:20.925Z,12.00
2023-03-02T14:46:47.549Z,11.48
2023-03-02T14:49:14.137Z,12.13
2023-03-02T14:51:40.926Z,11.88
2023-03-02T14:54:09.673Z,11.93
2023-03-02T14:56:36.205Z,12.32
2023-03-02T14:59:02.693Z,12.63
2023-03-02T15:01:29.304Z,11.93
2023-03-02T15:03:55.785Z,11.30
2023-03-02T15:06:24.847Z,10.70
2023-03-02T15:08:51.834Z,11.93
2023-03-02T15:11:18.321Z,11.38
2023-03-02T15:13:45.811Z,10.93
2023-03-02T15:16:12.688Z,10.57
2023-03-02T15:18:39.352Z,10.57
2023-03-02T15:21:06.094Z,11.23
2023-03-02T15:23:32.984Z,9.75
2023-03-02T15:26:00.421Z,9.60
2023-03-02T15:28:26.989Z,9.15
2023-03-02T15:30:53.517Z,9.23
2023-03-02T15:33:19.988Z,9.95
2023-03-02T15:35:46.549Z,10.65
2023-03-02T15:38:13.079Z,10.65
2023-03-02T15:40:39.599Z,10.43
2023-03-02T15:43:06.149Z,9.70
2023-03-02T15:45:32.657Z,10.35
2023-03-02T15:47:59.123Z,9.23
2023-03-02T15:50:25.659Z,9.40
2023-03-02T15:52:52.206Z,10.10
2023-03-02T15:55:18.814Z,10.55
2023-03-02T15:57:45.296Z,9.95
2023-03-02T16:00:13.497Z,8.55
2023-03-02T16:02:40.585Z,10.20
2023-03-02T16:05:07.640Z,9.65
2023-03-02T16:07:34.485Z,10.15
2023-03-02T16:10:00.995Z,10.13
2023-03-02T16:12:27.511Z,10.23
2023-03-02T16:14:54.122Z,10.52
2023-03-02T16:17:21.362Z,11.23
2023-03-02T16:19:47.832Z,9.50
2023-03-02T16:22:14.584Z,9.88
2023-03-02T16:24:41.994Z,8.98
2023-03-02T16:27:08.571Z,8.73
2023-03-02T16:29:35.096Z,9.23
2023-03-02T16:32:01.793Z,10.05
2023-03-02T16:34:28.386Z,11.30
2023-03-02T16:36:54.914Z,9.82
2023-03-02T16:39:21.414Z,9.23
2023-03-02T16:41:47.912Z,9.90
2023-03-02T16:44:14.670Z,10.25
2023-03-02T16:46:43.278Z,10.70
2023-03-02T16:49:10.979Z,12.63
2023-03-02T16:51:37.886Z,12.15
2023-03-02T16:54:04.362Z,12.15
2023-03-02T16:56:30.873Z,10.15
2023-03-02T16:58:59.979Z,9.20
2023-03-02T17:01:26.872Z,9.90
2023-03-02T17:03:53.431Z,10.13
2023-03-02T17:06:21.445Z,9.52
2023-03-02T17:08:48.029Z,9.52
2023-03-02T17:11:14.507Z,11.20
2023-03-02T17:13:41.217Z,10.73
2023-03-02T17:16:07.928Z,9.48
2023-03-02T17:18:34.657Z,10.05
2023-03-02T17:21:01.399Z,10.63
2023-03-02T17:23:28.097Z,10.20
2023-03-02T17:25:54.850Z,12.82
2023-03-02T17:28:21.363Z,11.68
2023-03-02T17:30:47.901Z,10.40
2023-03-02T17:33:14.427Z,10.80
2023-03-02T17:35:41.042Z,15.18
2023-03-02T17:38:07.550Z,17.30
2023-03-02T17:40:34.092Z,16.35
2023-03-02T17:43:00.618Z,11.23
2023-03-02T17:45:27.922Z,11.02
2023-03-02T17:47:54.702Z,11.02
2023-03-02T17:50:21.647Z,10.15
2023-03-02T17:52:48.414Z,9.88
2023-03-02T17:55:15.072Z,11.82
2023-03-02T17:57:41.727Z,11.02
2023-03-02T18:00:10.955Z,11.05
2023-03-02T18:02:37.452Z,12.20
2023-03-02T18:05:04.322Z,12.07
2023-03-02T18:07:30.821Z,11.73
2023-03-02T18:09:57.292Z,13.02
2023-03-02T18:12:23.872Z,11.10
2023-03-02T18:14:50.457Z,10.57
2023-03-02T18:17:19.914Z,11.38
2023-03-02T18:19:47.348Z,10.20
2023-03-02T18:22:13.885Z,11.32
2023-03-02T18:24:40.408Z,11.32
2023-03-02T18:27:07.013Z,10.90
2023-03-02T18:29:33.623Z,11.88
2023-03-02T18:32:00.232Z,12.38
2023-03-02T18:34:26.945Z,11.82
2023-03-02T18:36:53.470Z,12.18
2023-03-02T18:39:20.135Z,12.07
2023-03-02T18:41:46.746Z,12.88
2023-03-02T18:44:13.285Z,12.82
2023-03-02T18:46:39.910Z,11.70
2023-03-02T18:49:06.542Z,11.98
2023-03-02T18:51:33.074Z,12.90
2023-03-02T18:53:59.659Z,15.30
2023-03-02T18:56:26.210Z,16.38
2023-03-02T18:58:52.729Z,14.15
2023-03-02T19:01:19.634Z,14.30
2023-03-02T19:03:46.350Z,15.35
2023-03-02T19:06:13.135Z,13.15
2023-03-02T19:08:39.781Z,13.98
2023-03-02T19:11:06.477Z,12.95
2023-03-02T19:13:33.113Z,13.05
2023-03-02T19:16:01.824Z,12.57
2023-03-02T19:18:28.844Z,12.60
2023-03-02T19:20:55.648Z,11.15
2023-03-02T19:23:22.138Z,12.23
2023-03-02T19:25:48.789Z,13.13
2023-03-02T19:28:15.817Z,11.95
2023-03-02T19:30:42.271Z,14.65
2023-03-02T19:33:10.038Z,13.00
2023-03-02T19:35:37.584Z,12.48
2023-03-02T19:38:04.884Z,12.70
2023-03-02T19:40:32.092Z,13.35
2023-03-02T19:42:58.601Z,12.80
2023-03-02T19:45:28.602Z,13.38
2023-03-02T19:47:58.400Z,13.73
2023-03-02T19:50:25.306Z,12.30
2023-03-02T19:52:52.437Z,13.48
2023-03-02T19:55:19.631Z,14.45
2023-03-02T19:57:51.084Z,14.60
2023-03-02T20:00:19.198Z,15.60
2023-03-02T20:02:47.182Z,15.80
2023-03-02T20:05:13.725Z,15.85
2023-03-02T20:07:41.855Z,14.55
2023-03-02T20:10:09.513Z,15.43
2023-03-02T20:12:36.822Z,15.23
2023-03-02T20:15:04.711Z,15.05
2023-03-02T20:17:31.200Z,14.52
2023-03-02T20:19:58.507Z,13.98
2023-03-02T20:22:25.851Z,14.85
2023-03-02T20:24:52.373Z,14.20
2023-03-02T20:27:18.898Z,14.23
2023-03-02T20:29:45.598Z,13.82
2023-03-02T20:32:12.338Z,14.75
2023-03-02T20:34:39.310Z,14.07
2023-03-02T20:37:06.103Z,13.18
2023-03-02T20:39:34.893Z,13.73
2023-03-02T20:42:01.462Z,13.05
2023-03-02T20:44:30.929Z,13.07
2023-03-02T20:46:58.913Z,13.40
2023-03-02T20:49:26.751Z,13.82
2023-03-02T20:51:54.817Z,11.73
2023-03-02T20:54:22.486Z,13.15
2023-03-02T20:56:49.048Z,12.32
2023-03-02T20:59:15.553Z,11.82
2023-03-02T21:01:42.060Z,12.63
2023-03-02T21:04:08.583Z,14.25
2023-03-02T21:06:35.186Z,12.63
2023-03-02T21:09:02.602Z,13.30
2023-03-02T21:11:29.828Z,13.35
2023-03-02T21:13:56.847Z,15.32
2023-03-02T21:16:27.999Z,13.38
2023-03-02T21:18:57.279Z,13.85
2023-03-02T21:21:32.638Z,14.85
2023-03-02T21:24:07.599Z,21.10
2023-03-02T21:26:34.908Z,18.67
2023-03-02T21:29:01.481Z,16.42
2023-03-02T21:31:28.075Z,16.73
2023-03-02T21:33:54.746Z,16.15
2023-03-02T21:36:22.382Z,14.07
2023-03-02T21:38:49.941Z,15.10
2023-03-02T21:41:16.422Z,15.45
2023-03-02T21:43:42.892Z,15.48
2023-03-02T21:46:12.494Z,15.10
2023-03-02T21:48:39.014Z,15.77
2023-03-02T21:51:06.570Z,15.38
2023-03-02T21:53:33.251Z,14.13
2023-03-02T21:56:01.765Z,16.15
2023-03-02T21:58:28.552Z,16.50
2023-03-02T22:00:55.430Z,16.08
2023-03-02T22:03:21.923Z,15.32
2023-03-02T22:05:48.644Z,14.95
2023-03-02T22:08:17.570Z,17.20
2023-03-02T22:10:45.566Z,16.63
2023-03-02T22:13:17.849Z,16.42
2023-03-02T22:15:47.387Z,16.25
2023-03-02T22:18:21.626Z,16.45
2023-03-02T22:20:49.786Z,15.25
2023-03-02T22:23:19.149Z,18.65
2023-03-02T22:25:45.686Z,17.80
2023-03-02T22:28:22.818Z,17.77
2023-03-02T22:30:50.883Z,17.92
2023-03-02T22:33:21.108Z,18.20
2023-03-02T22:35:48.457Z,18.75
2023-03-02T22:38:25.748Z,18.35
2023-03-02T22:40:52.642Z,18.77
2023-03-02T22:43:26.075Z,16.48
2023-03-02T22:45:53.502Z,17.70
2023-03-02T22:48:21.507Z,17.27
2023-03-02T22:50:48.979Z,17.55
2023-03-02T22:53:31.800Z,17.33
2023-03-02T22:56:02.229Z,17.50
2023-03-02T22:58:29.328Z,17.02
2023-03-02T23:00:56.996Z,16.90
2023-03-02T23:03:26.302Z,16.13
2023-03-02T23:05:53.054Z,15.98
2023-03-02T23:08:23.483Z,15.57
2023-03-02T23:10:51.305Z,15.95
2023-03-02T23:13:19.227Z,15.55
2023-03-02T23:15:46.152Z,15.98
2023-03-02T23:18:25.477Z,18.17
2023-03-02T23:20:52.048Z,15.57
2023-03-02T23:23:18.780Z,19.05
2023-03-02T23:25:45.887Z,17.40
2023-03-02T23:28:12.552Z,18.10
2023-03-02T23:30:39.044Z,20.38
2023-03-02T23:33:05.626Z,19.00
2023-03-02T23:35:32.113Z,18.35
2023-03-02T23:37:58.632Z,17.73
2023-03-02T23:40:25.409Z,17.20
2023-03-02T23:42:51.901Z,18.67
2023-03-02T23:45:18.504Z,15.68
2023-03-02T23:47:45.169Z,18.02
2023-03-02T23:50:12.099Z,17.95
2023-03-02T23:52:39.227Z,18.23
2023-03-02T23:55:07.024Z,18.30
2023-03-02T23:57:33.511Z,18.13
